Aérodrome :
LOGIN :

S'inscrire | Disclaimer

   EN    FR    IT 

 










Légende :    VFR   VFR Marginal   IFR   IFR Intensif   IFR Très Intensif
Visi : 
Plafond : 
>= 8 km
>= 3000ft
5 à 8 km
1000 à 3000 ft
1500m à 5 km
500 à 1000 ft
800 à 1500m
200 à 500 ft
< 800m
< 200 ft
Symboles :   Orages  Brouillard  Fortes neiges  Fortes précipitations  Vent > 20 kt
SIGMETs :   Divers  Orages  Givrage  Turbulence  Onde Orograph.  Cendres Volcan.






- Altitude de l'aérodrome : 7 ft
- Code IATA : VCE


LIPZ - Marco Polo Int. Venezia

DERNIER METAR :
  • 200450Z 33005KT CAVOK 09/08 Q1012 NOSIG

METARs EXPIRÉS :
  • 200420Z 34005KT CAVOK 09/08 Q1013 NOSIG
  • 200350Z 02006KT CAVOK 10/08 Q1013 NOSIG
  • 200320Z 03006KT CAVOK 10/08 Q1014 NOSIG
  • 200250Z 05006KT CAVOK 10/08 Q1014 NOSIG
  • 200220Z 04006KT CAVOK 10/08 Q1014 NOSIG

TAF TAF LIPZ
Valide du 20 à 00h jusqu'au 21 à 06h UTC


192300Z 2000/2106 04010KT 9999 SCT020 BKN050
TEMPO 2000/2009 3000 SHRA
BECMG 2006/2009 VRB05KT
BECMG 2021/2023 4000 BR BKN012
TEMPO 2100/2106 0400 FG



MET'MAP, la Météo Aéronautique d'un coup d'oeil ! - Copyright ORBIFLY Décembre 2007 - Disclaimer

ORBIFLY MET'MAP TEAM :

Programmation & Développement : Alexandra Zaïnal
Conception & Développement : Baudouin d'Aumeries
Co-Programmation & Développement : Marc-Olivier Méhu
Soutien technique & logistique : Manuel Goepfert

Contact : metmap@orbifly.com




SOURCES & CREDITS :

   NOAA